Airfield :







YOU CAN JOIN US ON...

 
LOGIN :

Register | Disclaimer

   EN    FR    IT 

 









Legend :    VFR   Marginal VFR   IFR   Intensive IFR   Very Intensive IFR
Visi :
Ceiling :
>= 8 km
>= 3000ft
5 to 8 km
1000 to 3000 ft
1500m to 5 km
500 to 1000 ft
800 to 1500m
200 to 500 ft
< 800m
< 200 ft
Symbols :   Thunderstorms  Fog  Heavy snow  Heavy precipitations  Wind > 20 kt







- Airport Elevation : 90 ft
- IATA code : YHU


CYHU - Montréal Saint-Hubert

CURRENT METAR :
  • 181100Z AUTO 02007KT 9SM CLR 15/12 A3002 RMK SLP169

EXPIRED METARs :
  • 181000Z AUTO 01010KT 9SM CLR 14/11 A3002 RMK SLP167
  • 180900Z AUTO 01008KT 9SM CLR 14/11 A3001 RMK SLP164
  • 180800Z AUTO 03009KT 9SM CLR 15/11 A2999 RMK SLP157

TAF TAF CYHU
Valid from the 18 at 06:00 until the 19 at 06:00 UTC


180551Z 1806/1906 04006KT P6SM FEW280
BECMG 1815/1817 07010KT
FM190000 07006KT P6SM BKN280 RMK FCST BASED ON AUTO OBS. NXT FCST BY 181200Z
CZUL FIR / North America



MET'MAP, your aeronautical weather chart ! - Copyright ORBIFLY December 2007 - Disclaimer

ORBIFLY MET'MAP TEAM :

Programming & Development : Alexandra Zaïnal
Concept & Development : Baudouin d'Aumeries
Co-Development & Prog : Marc-Olivier Méhu
Technical & hardware support : Manuel Goepfert

Contact : metmap@orbifly.com




SOURCES & CREDITS :

   NOAA